createdAt,value
2016-08-25T00:00:48.545Z,0
2016-08-25T00:01:48.575Z,0
2016-08-25T00:02:48.582Z,0
2016-08-25T00:03:48.565Z,0
2016-08-25T00:04:48.544Z,0
2016-08-25T00:05:49.291Z,0
2016-08-25T00:06:48.544Z,0
2016-08-25T00:07:48.540Z,0
2016-08-25T00:08:48.536Z,0
2016-08-25T00:09:48.533Z,0
2016-08-25T00:10:49.262Z,0
2016-08-25T00:11:48.513Z,0
2016-08-25T00:12:48.520Z,0
2016-08-25T00:13:48.519Z,0
2016-08-25T00:14:48.512Z,0
2016-08-25T00:15:48.501Z,0
2016-08-25T00:16:48.509Z,0
2016-08-25T00:17:48.509Z,0
2016-08-25T00:18:48.517Z,0
2016-08-25T00:19:48.505Z,0
2016-08-25T00:20:48.501Z,0
2016-08-25T00:21:48.492Z,0
2016-08-25T00:22:48.469Z,0
2016-08-25T00:23:48.475Z,0
2016-08-25T00:24:48.485Z,0
2016-08-25T00:25:48.455Z,0
2016-08-25T00:26:48.466Z,0
2016-08-25T00:27:48.455Z,0
2016-08-25T00:28:48.433Z,0
2016-08-25T00:29:48.450Z,0
2016-08-25T00:30:48.425Z,0
2016-08-25T00:31:48.446Z,0
2016-08-25T00:32:48.430Z,0
2016-08-25T00:33:48.458Z,0
2016-08-25T00:34:48.435Z,0
2016-08-25T00:35:48.398Z,0
2016-08-25T00:36:48.430Z,0
2016-08-25T00:37:48.407Z,0
2016-08-25T00:38:48.430Z,0
2016-08-25T00:39:48.383Z,0
2016-08-25T00:40:48.405Z,0
2016-08-25T00:41:48.407Z,0
2016-08-25T00:42:48.407Z,0
2016-08-25T00:43:48.385Z,0
2016-08-25T00:44:48.373Z,0
2016-08-25T00:45:48.397Z,0
2016-08-25T00:46:48.371Z,0
2016-08-25T00:47:48.396Z,0
2016-08-25T00:48:48.356Z,0
2016-08-25T00:49:48.366Z,0
2016-08-25T00:50:48.386Z,0
2016-08-25T00:51:48.350Z,0
2016-08-25T00:52:48.366Z,0
2016-08-25T00:53:48.363Z,0
2016-08-25T00:54:48.348Z,0
2016-08-25T00:55:48.328Z,0
2016-08-25T00:56:48.325Z,0
2016-08-25T00:57:48.334Z,0
2016-08-25T00:58:48.304Z,0
2016-08-25T00:59:48.322Z,0
2016-08-25T01:00:48.313Z,0
2016-08-25T01:01:48.319Z,0
2016-08-25T01:02:48.999Z,0
2016-08-25T01:03:48.284Z,0
2016-08-25T01:04:48.269Z,0
2016-08-25T01:05:48.305Z,0
2016-08-25T01:06:48.293Z,0
2016-08-25T01:07:48.262Z,0
2016-08-25T01:08:48.286Z,0
2016-08-25T01:09:48.302Z,0
2016-08-25T01:10:48.290Z,0
2016-08-25T01:11:48.252Z,0
2016-08-25T01:12:48.262Z,0
2016-08-25T01:13:48.287Z,0
2016-08-25T01:14:48.271Z,0
2016-08-25T01:15:48.263Z,0
2016-08-25T01:16:48.261Z,0
2016-08-25T01:17:48.243Z,0
2016-08-25T01:18:48.272Z,0
2016-08-25T01:19:48.258Z,0
2016-08-25T01:20:48.223Z,0
2016-08-25T01:21:48.216Z,0
2016-08-25T01:22:48.223Z,0
2016-08-25T01:23:48.258Z,0
2016-08-25T01:24:48.943Z,0
2016-08-25T01:25:48.220Z,0
2016-08-25T01:26:48.204Z,0
2016-08-25T01:27:48.197Z,0
2016-08-25T01:28:48.205Z,0
2016-08-25T01:29:48.197Z,0
2016-08-25T01:30:48.207Z,0
2016-08-25T01:31:48.167Z,0
2016-08-25T01:32:48.170Z,0
2016-08-25T01:33:48.177Z,0
2016-08-25T01:34:48.173Z,0
2016-08-25T01:35:48.186Z,0
2016-08-25T01:36:48.153Z,0
2016-08-25T01:37:48.195Z,0
2016-08-25T01:38:48.171Z,0
2016-08-25T01:39:48.156Z,0
2016-08-25T01:40:48.140Z,0
2016-08-25T01:41:48.138Z,0
2016-08-25T01:42:48.125Z,0
2016-08-25T01:43:48.132Z,0
2016-08-25T01:44:48.147Z,0
2016-08-25T01:45:48.126Z,0
2016-08-25T01:46:48.841Z,0
2016-08-25T01:47:48.117Z,0
2016-08-25T01:48:48.124Z,0
2016-08-25T01:49:48.139Z,0
2016-08-25T01:50:48.123Z,0
2016-08-25T01:51:48.101Z,0
2016-08-25T01:52:48.822Z,0
2016-08-25T01:53:48.099Z,0
2016-08-25T01:54:48.098Z,0
2016-08-25T01:55:48.124Z,0
2016-08-25T01:56:48.107Z,0
2016-08-25T01:57:48.771Z,0
2016-08-25T01:58:48.076Z,0
2016-08-25T01:59:48.084Z,0
2016-08-25T02:00:48.064Z,0
2016-08-25T02:01:48.104Z,0
2016-08-25T02:02:48.048Z,0
2016-08-25T02:03:48.044Z,0
2016-08-25T02:04:48.061Z,0
2016-08-25T02:05:48.065Z,0
2016-08-25T02:06:48.189Z,0
2016-08-25T02:07:48.044Z,0
2016-08-25T02:08:48.038Z,0
2016-08-25T02:09:48.043Z,0
2016-08-25T02:10:48.050Z,0
2016-08-25T02:11:48.030Z,0
2016-08-25T02:12:48.008Z,0
2016-08-25T02:13:48.016Z,0
2016-08-25T02:14:48.029Z,0
2016-08-25T02:15:48.024Z,0
2016-08-25T02:16:47.992Z,0
2016-08-25T02:17:48.011Z,0
2016-08-25T02:18:48.016Z,0
2016-08-25T02:19:48.014Z,0
2016-08-25T02:20:48.006Z,0
2016-08-25T02:21:48.014Z,0
2016-08-25T02:22:47.991Z,0
2016-08-25T02:23:47.993Z,0
2016-08-25T02:24:47.974Z,0
2016-08-25T02:25:47.992Z,0
2016-08-25T02:26:47.982Z,0
2016-08-25T02:27:47.950Z,0
2016-08-25T02:28:47.937Z,0
2016-08-25T02:29:47.958Z,0
2016-08-25T02:30:47.924Z,0
2016-08-25T02:31:47.994Z,0
2016-08-25T02:32:47.956Z,0
2016-08-25T02:33:47.951Z,0
2016-08-25T02:34:47.937Z,0
2016-08-25T02:35:47.925Z,0
2016-08-25T02:36:47.933Z,0
2016-08-25T02:37:47.923Z,0
2016-08-25T02:38:47.923Z,0
2016-08-25T02:39:47.928Z,0
2016-08-25T02:40:47.904Z,0
2016-08-25T02:41:47.887Z,0
2016-08-25T02:42:47.904Z,0
2016-08-25T02:43:47.911Z,0
2016-08-25T02:44:47.897Z,0
2016-08-25T02:45:47.884Z,0
2016-08-25T02:46:47.913Z,0
2016-08-25T02:47:48.619Z,0
2016-08-25T02:48:47.909Z,0
2016-08-25T02:49:47.883Z,0
2016-08-25T02:50:48.585Z,0
2016-08-25T02:51:47.901Z,0
2016-08-25T02:52:47.844Z,0
2016-08-25T02:53:47.851Z,0
2016-08-25T02:54:47.857Z,0
2016-08-25T02:55:47.831Z,0
2016-08-25T02:56:47.850Z,0
2016-08-25T02:57:47.856Z,0
2016-08-25T02:58:47.839Z,0
2016-08-25T02:59:47.828Z,0
2016-08-25T03:00:47.861Z,0
2016-08-25T03:01:47.827Z,0
2016-08-25T03:02:47.815Z,0
2016-08-25T03:03:47.807Z,0
2016-08-25T03:04:47.818Z,0
2016-08-25T03:05:47.811Z,0
2016-08-25T03:06:47.938Z,0
2016-08-25T03:07:47.815Z,0
2016-08-25T03:08:47.831Z,0
2016-08-25T03:09:47.807Z,0
2016-08-25T03:10:47.801Z,0
2016-08-25T03:11:47.775Z,0
2016-08-25T03:12:47.777Z,0
2016-08-25T03:13:47.756Z,0
2016-08-25T03:14:47.783Z,0
2016-08-25T03:15:48.463Z,0
2016-08-25T03:16:47.760Z,0
2016-08-25T03:17:47.759Z,0
2016-08-25T03:18:47.756Z,0
2016-08-25T03:19:47.759Z,0
2016-08-25T03:20:48.457Z,0
2016-08-25T03:21:47.753Z,0
2016-08-25T03:22:47.759Z,0
2016-08-25T03:23:47.744Z,0
2016-08-25T03:24:47.743Z,0
2016-08-25T03:25:47.747Z,0
2016-08-25T03:26:47.724Z,0
2016-08-25T03:27:48.466Z,0
2016-08-25T03:28:47.696Z,0
2016-08-25T03:29:47.685Z,0
2016-08-25T03:30:47.729Z,0
2016-08-25T03:31:47.692Z,0
2016-08-25T03:32:47.701Z,0
2016-08-25T03:33:47.729Z,0
2016-08-25T03:34:47.697Z,0
2016-08-25T03:35:47.695Z,0
2016-08-25T03:36:47.695Z,0
2016-08-25T03:37:47.673Z,0
2016-08-25T03:38:47.663Z,0
2016-08-25T03:39:47.714Z,0
2016-08-25T03:40:47.687Z,0
2016-08-25T03:41:47.669Z,0
2016-08-25T03:42:47.681Z,0
2016-08-25T03:43:47.641Z,0
2016-08-25T03:44:47.638Z,0
2016-08-25T03:45:47.658Z,0
2016-08-25T03:46:47.660Z,0
2016-08-25T03:47:47.676Z,0
2016-08-25T03:48:47.618Z,0
2016-08-25T03:49:47.627Z,0
2016-08-25T03:50:47.649Z,0
2016-08-25T03:51:47.622Z,0
2016-08-25T03:52:47.629Z,0
2016-08-25T03:53:47.619Z,0
2016-08-25T03:54:47.637Z,0
2016-08-25T03:55:47.622Z,0
2016-08-25T03:56:47.594Z,0
2016-08-25T03:57:47.611Z,0
2016-08-25T03:58:47.624Z,0
2016-08-25T03:59:47.589Z,0
2016-08-25T04:00:47.593Z,0
2016-08-25T04:01:47.593Z,0
2016-08-25T04:02:47.563Z,0
2016-08-25T04:03:47.593Z,0
2016-08-25T04:04:47.549Z,0
2016-08-25T04:05:47.541Z,0
2016-08-25T04:06:47.568Z,0
2016-08-25T04:07:47.580Z,0
2016-08-25T04:08:47.557Z,0
2016-08-25T04:09:47.538Z,0
2016-08-25T04:10:47.545Z,5
2016-08-25T04:11:47.554Z,5
2016-08-25T04:12:47.515Z,5
2016-08-25T04:13:48.218Z,5
2016-08-25T04:14:47.514Z,5
2016-08-25T04:15:47.530Z,10
2016-08-25T04:16:47.505Z,10
2016-08-25T04:17:47.552Z,10
2016-08-25T04:18:47.523Z,15
2016-08-25T04:19:47.515Z,15
2016-08-25T04:20:47.502Z,15
2016-08-25T04:21:47.504Z,20
2016-08-25T04:22:47.521Z,20
2016-08-25T04:23:47.494Z,25
2016-08-25T04:24:47.483Z,25
2016-08-25T04:25:47.488Z,30
2016-08-25T04:26:47.476Z,30
2016-08-25T04:27:47.476Z,35
2016-08-25T04:28:47.444Z,40
2016-08-25T04:29:47.473Z,40
2016-08-25T04:30:47.462Z,45
2016-08-25T04:31:47.444Z,50
2016-08-25T04:32:47.430Z,50
2016-08-25T04:33:47.448Z,55
2016-08-25T04:34:47.463Z,60
2016-08-25T04:35:47.417Z,65
2016-08-25T04:36:47.420Z,65
2016-08-25T04:37:47.453Z,70
2016-08-25T04:38:47.411Z,75
2016-08-25T04:39:47.421Z,80
2016-08-25T04:40:47.401Z,85
2016-08-25T04:41:47.409Z,85
2016-08-25T04:42:47.389Z,90
2016-08-25T04:43:47.400Z,95
2016-08-25T04:44:47.404Z,100
2016-08-25T04:45:47.365Z,105
2016-08-25T04:46:47.424Z,115
2016-08-25T04:47:47.366Z,140
2016-08-25T04:48:47.385Z,155
2016-08-25T04:49:47.387Z,140
2016-08-25T04:50:47.361Z,135
2016-08-25T04:51:47.373Z,140
2016-08-25T04:52:47.389Z,140
2016-08-25T04:53:47.376Z,145
2016-08-25T04:54:47.331Z,150
2016-08-25T04:55:47.352Z,155
2016-08-25T04:56:47.357Z,170
2016-08-25T04:57:47.343Z,215
2016-08-25T04:58:47.316Z,235
2016-08-25T04:59:47.323Z,235
2016-08-25T05:00:47.331Z,245
2016-08-25T05:01:47.300Z,250
2016-08-25T05:02:47.334Z,260
2016-08-25T05:03:47.316Z,260
2016-08-25T05:04:47.315Z,270
2016-08-25T05:05:47.337Z,295
2016-08-25T05:06:47.310Z,310
2016-08-25T05:07:47.338Z,325
2016-08-25T05:08:47.287Z,345
2016-08-25T05:09:47.296Z,340
2016-08-25T05:10:47.278Z,335
2016-08-25T05:11:47.264Z,330
2016-08-25T05:12:47.265Z,345
2016-08-25T05:13:47.274Z,360
2016-08-25T05:14:47.291Z,375
2016-08-25T05:15:47.270Z,395
2016-08-25T05:16:47.275Z,410
2016-08-25T05:17:47.295Z,430
2016-08-25T05:18:47.261Z,425
2016-08-25T05:19:47.260Z,440
2016-08-25T05:20:47.281Z,440
2016-08-25T05:21:47.244Z,445
2016-08-25T05:22:47.232Z,460
2016-08-25T05:23:47.250Z,510
2016-08-25T05:24:47.249Z,545
2016-08-25T05:25:47.234Z,550
2016-08-25T05:26:47.221Z,555
2016-08-25T05:27:47.216Z,585
2016-08-25T05:28:47.229Z,590
2016-08-25T05:29:47.243Z,590
2016-08-25T05:30:47.210Z,600
2016-08-25T05:31:47.223Z,615
2016-08-25T05:32:47.251Z,595
2016-08-25T05:33:47.221Z,575
2016-08-25T05:34:47.208Z,545
2016-08-25T05:35:47.194Z,530
2016-08-25T05:36:47.226Z,520
2016-08-25T05:37:47.225Z,525
2016-08-25T05:38:47.196Z,640
2016-08-25T05:39:47.210Z,760
2016-08-25T05:40:47.225Z,830
2016-08-25T05:41:47.223Z,805
2016-08-25T05:42:47.187Z,835
2016-08-25T05:43:47.175Z,840
2016-08-25T05:44:47.177Z,835
2016-08-25T05:45:47.182Z,805
2016-08-25T05:46:47.880Z,715
2016-08-25T05:47:47.168Z,780
2016-08-25T05:48:47.154Z,760
2016-08-25T05:49:47.155Z,775
2016-08-25T05:50:47.168Z,900
2016-08-25T05:51:47.183Z,985
2016-08-25T05:52:47.167Z,910
2016-08-25T05:53:47.145Z,875
2016-08-25T05:54:47.177Z,830
2016-08-25T05:55:47.190Z,825
2016-08-25T05:56:47.133Z,830
2016-08-25T05:57:47.166Z,920
2016-08-25T05:58:47.172Z,1000
2016-08-25T05:59:47.174Z,950
2016-08-25T06:00:47.129Z,1035
2016-08-25T06:01:47.131Z,1135
2016-08-25T06:02:47.160Z,1030
2016-08-25T06:03:47.126Z,940
2016-08-25T06:04:47.125Z,990
2016-08-25T06:05:47.151Z,1065
2016-08-25T06:06:47.124Z,1115
2016-08-25T06:07:47.139Z,1070
2016-08-25T06:08:47.147Z,1110
2016-08-25T06:09:47.125Z,1185
2016-08-25T06:10:47.106Z,1105
2016-08-25T06:11:47.818Z,1060
2016-08-25T06:12:47.126Z,1150
2016-08-25T06:13:47.103Z,1200
2016-08-25T06:14:47.132Z,1205
2016-08-25T06:15:47.113Z,1230
2016-08-25T06:16:47.104Z,1245
2016-08-25T06:17:47.122Z,1120
2016-08-25T06:18:47.102Z,1130
2016-08-25T06:19:47.093Z,1300
2016-08-25T06:20:47.089Z,1365
2016-08-25T06:21:47.115Z,1275
2016-08-25T06:22:47.075Z,1225
2016-08-25T06:23:47.089Z,1295
2016-08-25T06:24:47.101Z,1450
2016-08-25T06:25:47.099Z,1345
2016-08-25T06:26:47.092Z,1205
2016-08-25T06:27:47.067Z,1235
2016-08-25T06:28:47.094Z,1340
2016-08-25T06:29:47.079Z,1355
2016-08-25T06:30:47.091Z,1275
2016-08-25T06:31:47.061Z,1305
2016-08-25T06:32:47.056Z,1435
2016-08-25T06:33:47.063Z,1510
2016-08-25T06:34:47.081Z,1480
2016-08-25T06:35:47.086Z,1570
2016-08-25T06:36:47.103Z,1470
2016-08-25T06:37:47.069Z,1460
2016-08-25T06:38:47.036Z,1670
2016-08-25T06:39:47.070Z,1720
2016-08-25T06:40:47.040Z,1675
2016-08-25T06:41:47.755Z,1565
2016-08-25T06:42:47.073Z,1670
2016-08-25T06:43:47.071Z,1705
2016-08-25T06:44:47.083Z,1770
2016-08-25T06:45:47.055Z,1705
2016-08-25T06:46:47.026Z,1765
2016-08-25T06:47:47.047Z,2000
2016-08-25T06:48:47.052Z,1985
2016-08-25T06:49:47.040Z,1850
2016-08-25T06:50:47.060Z,1905
2016-08-25T06:51:47.044Z,1765
2016-08-25T06:52:47.045Z,1705
2016-08-25T06:53:47.031Z,1765
2016-08-25T06:54:47.042Z,1785
2016-08-25T06:55:47.038Z,1790
2016-08-25T06:56:47.059Z,1810
2016-08-25T06:57:47.060Z,1845
2016-08-25T06:58:47.049Z,1875
2016-08-25T06:59:47.050Z,1915
2016-08-25T07:00:47.015Z,1660
2016-08-25T07:01:47.043Z,1715
2016-08-25T07:02:47.032Z,1915
2016-08-25T07:03:47.040Z,1800
2016-08-25T07:04:47.039Z,2010
2016-08-25T07:05:47.070Z,2180
2016-08-25T07:06:47.064Z,2060
2016-08-25T07:07:47.793Z,2145
2016-08-25T07:08:47.059Z,1995
2016-08-25T07:09:47.066Z,1935
2016-08-25T07:10:47.028Z,1885
2016-08-25T07:11:47.064Z,2100
2016-08-25T07:12:47.027Z,2245
2016-08-25T07:13:47.049Z,2235
2016-08-25T07:14:47.033Z,2195
2016-08-25T07:15:47.040Z,2240
2016-08-25T07:16:47.068Z,2185
2016-08-25T07:17:47.070Z,2075
2016-08-25T07:18:47.789Z,2285
2016-08-25T07:19:47.043Z,2470
2016-08-25T07:20:47.048Z,2230
2016-08-25T07:21:47.051Z,2075
2016-08-25T07:22:47.075Z,2545
2016-08-25T07:23:47.066Z,2190
2016-08-25T07:24:47.081Z,1845
2016-08-25T07:25:47.070Z,2100
2016-08-25T07:26:47.065Z,1940
2016-08-25T07:27:47.073Z,2150
2016-08-25T07:28:47.095Z,2430
2016-08-25T07:29:47.092Z,1935
2016-08-25T07:30:47.085Z,1795
2016-08-25T07:31:47.104Z,1935
2016-08-25T07:32:47.094Z,1950
2016-08-25T07:33:47.091Z,2125
2016-08-25T07:34:47.067Z,2120
2016-08-25T07:35:47.106Z,2225
2016-08-25T07:36:47.085Z,2500
2016-08-25T07:37:47.095Z,2195
2016-08-25T07:38:47.100Z,2025
2016-08-25T07:39:47.096Z,2150
2016-08-25T07:40:47.110Z,2360
2016-08-25T07:41:47.075Z,2315
2016-08-25T07:42:47.124Z,2430
2016-08-25T07:43:47.125Z,2535
2016-08-25T07:44:47.084Z,2080
2016-08-25T07:45:47.088Z,2255
2016-08-25T07:46:47.086Z,2545
2016-08-25T07:47:47.107Z,2635
2016-08-25T07:48:47.131Z,2130
2016-08-25T07:49:47.116Z,1880
2016-08-25T07:50:47.108Z,2940
2016-08-25T07:51:47.129Z,3265
2016-08-25T07:52:47.121Z,2420
2016-08-25T07:53:47.124Z,2885
2016-08-25T07:54:47.166Z,3490
2016-08-25T07:55:47.136Z,3110
2016-08-25T07:56:47.149Z,2855
2016-08-25T07:57:47.146Z,2395
2016-08-25T07:58:47.116Z,1635
2016-08-25T07:59:47.118Z,1675
2016-08-25T08:00:47.130Z,1855
2016-08-25T08:01:47.133Z,1860
2016-08-25T08:02:47.166Z,1985
2016-08-25T08:03:47.127Z,2415
2016-08-25T08:04:47.838Z,3365
2016-08-25T08:05:47.148Z,3920
2016-08-25T08:06:47.124Z,3495
2016-08-25T08:07:47.291Z,3620
2016-08-25T08:08:47.131Z,3030
2016-08-25T08:09:47.174Z,2685
2016-08-25T08:10:47.159Z,3140
2016-08-25T08:11:47.159Z,3395
2016-08-25T08:12:47.145Z,2760
2016-08-25T08:13:47.145Z,2750
2016-08-25T08:14:47.198Z,2700
2016-08-25T08:15:47.163Z,2960
2016-08-25T08:16:47.166Z,3060
2016-08-25T08:17:47.165Z,2995
2016-08-25T08:18:47.135Z,3295
2016-08-25T08:19:47.191Z,3835
2016-08-25T08:20:47.170Z,4040
2016-08-25T08:21:47.162Z,3715
2016-08-25T08:22:47.198Z,3085
2016-08-25T08:23:47.169Z,2840
2016-08-25T08:24:47.191Z,2935
2016-08-25T08:25:47.159Z,3125
2016-08-25T08:26:47.853Z,3475
2016-08-25T08:27:47.190Z,2760
2016-08-25T08:28:47.169Z,1985
2016-08-25T08:29:47.152Z,2045
2016-08-25T08:30:47.153Z,2665
2016-08-25T08:31:47.194Z,3420
2016-08-25T08:32:47.162Z,3450
2016-08-25T08:33:47.179Z,3560
2016-08-25T08:34:47.908Z,3265
2016-08-25T08:35:47.190Z,3055
2016-08-25T08:36:47.198Z,2720
2016-08-25T08:37:47.187Z,2295
2016-08-25T08:38:47.189Z,2325
2016-08-25T08:39:47.197Z,2495
2016-08-25T08:40:47.208Z,2620
2016-08-25T08:41:47.180Z,2880
2016-08-25T08:42:47.220Z,2710
2016-08-25T08:43:47.190Z,2765
2016-08-25T08:44:47.218Z,2745
2016-08-25T08:45:47.210Z,2990
2016-08-25T08:46:47.185Z,3160
2016-08-25T08:47:47.184Z,3090
2016-08-25T08:48:47.205Z,3190
2016-08-25T08:49:47.195Z,3335
2016-08-25T08:50:47.206Z,3355
2016-08-25T08:51:47.207Z,3330
2016-08-25T08:52:47.210Z,3210
2016-08-25T08:53:47.228Z,2950
2016-08-25T08:54:47.212Z,2995
2016-08-25T08:55:47.202Z,3170
2016-08-25T08:56:47.196Z,3155
2016-08-25T08:57:47.211Z,3150
2016-08-25T08:58:47.224Z,3170
2016-08-25T08:59:47.217Z,3185
2016-08-25T09:00:47.205Z,3165
2016-08-25T09:01:47.213Z,3210
2016-08-25T09:02:47.233Z,3105
2016-08-25T09:03:47.219Z,2850
2016-08-25T09:04:47.210Z,2815
2016-08-25T09:05:47.203Z,3620
2016-08-25T09:06:47.189Z,4035
2016-08-25T09:07:47.329Z,3385
2016-08-25T09:08:47.230Z,3125
2016-08-25T09:09:47.215Z,3340
2016-08-25T09:10:47.205Z,4355
2016-08-25T09:11:47.228Z,3940
2016-08-25T09:12:47.191Z,3345
2016-08-25T09:13:47.190Z,3405
2016-08-25T09:14:47.221Z,3335
2016-08-25T09:15:47.205Z,3595
2016-08-25T09:16:47.188Z,3710
2016-08-25T09:17:47.215Z,3580
2016-08-25T09:18:47.194Z,3675
2016-08-25T09:19:47.191Z,4030
2016-08-25T09:20:47.222Z,3645
2016-08-25T09:21:47.203Z,4135
2016-08-25T09:22:47.215Z,5520
2016-08-25T09:23:47.211Z,4640
2016-08-25T09:24:47.241Z,3775
2016-08-25T09:25:47.197Z,3910
2016-08-25T09:26:47.229Z,4240
2016-08-25T09:27:47.197Z,4230
2016-08-25T09:28:47.207Z,3385
2016-08-25T09:29:47.218Z,3335
2016-08-25T09:30:47.194Z,3970
2016-08-25T09:31:47.206Z,3550
2016-08-25T09:32:47.191Z,3200
2016-08-25T09:33:47.173Z,3630
2016-08-25T09:34:47.220Z,3740
2016-08-25T09:35:47.229Z,3485
2016-08-25T09:36:47.193Z,3165
2016-08-25T09:37:47.219Z,2890
2016-08-25T09:38:47.197Z,3075
2016-08-25T09:39:47.202Z,3365
2016-08-25T09:40:47.241Z,3180
2016-08-25T09:41:47.208Z,2885
2016-08-25T09:42:47.214Z,3025
2016-08-25T09:43:47.180Z,3950
2016-08-25T09:44:47.239Z,3640
2016-08-25T09:45:47.174Z,2900
2016-08-25T09:46:47.903Z,3230
2016-08-25T09:47:47.205Z,3455
2016-08-25T09:48:47.183Z,3150
2016-08-25T09:49:47.206Z,3000
2016-08-25T09:50:47.181Z,3185
2016-08-25T09:51:47.184Z,3165
2016-08-25T09:52:47.185Z,3875
2016-08-25T09:53:47.197Z,4230
2016-08-25T09:54:47.231Z,3665
2016-08-25T09:55:47.199Z,3285
2016-08-25T09:56:47.191Z,2940
2016-08-25T09:57:47.198Z,2910
2016-08-25T09:58:47.908Z,3910
2016-08-25T09:59:47.193Z,3935
2016-08-25T10:00:47.195Z,3590
2016-08-25T10:01:47.204Z,4255
2016-08-25T10:02:47.181Z,4040
2016-08-25T10:03:47.178Z,3420
2016-08-25T10:04:47.183Z,3760
2016-08-25T10:05:47.184Z,3705
2016-08-25T10:06:47.210Z,3200
2016-08-25T10:07:47.245Z,3415
2016-08-25T10:08:47.168Z,3535
2016-08-25T10:09:47.193Z,3930
2016-08-25T10:10:47.180Z,4195
2016-08-25T10:11:47.195Z,3985
2016-08-25T10:12:47.892Z,3965
2016-08-25T10:13:47.177Z,4040
2016-08-25T10:14:47.189Z,3975
2016-08-25T10:15:47.195Z,3950
2016-08-25T10:16:47.231Z,2960
2016-08-25T10:17:47.188Z,1995
2016-08-25T10:18:47.231Z,3275
2016-08-25T10:19:47.217Z,4905
2016-08-25T10:20:47.228Z,4220
2016-08-25T10:21:47.199Z,3410
2016-08-25T10:22:47.214Z,3355
2016-08-25T10:23:47.193Z,3555
2016-08-25T10:24:47.207Z,4170
2016-08-25T10:25:47.224Z,4530
2016-08-25T10:26:47.229Z,4295
2016-08-25T10:27:47.208Z,4055
2016-08-25T10:28:47.202Z,4550
2016-08-25T10:29:47.190Z,4290
2016-08-25T10:30:47.230Z,4110
2016-08-25T10:31:47.189Z,3890
2016-08-25T10:32:47.217Z,3605
2016-08-25T10:33:47.202Z,4315
2016-08-25T10:34:47.183Z,3955
2016-08-25T10:35:47.230Z,3470
2016-08-25T10:36:47.180Z,4145
2016-08-25T10:37:47.187Z,4470
2016-08-25T10:38:47.219Z,4250
2016-08-25T10:39:47.219Z,3985
2016-08-25T10:40:47.216Z,3340
2016-08-25T10:41:47.191Z,3115
2016-08-25T10:42:47.188Z,3240
2016-08-25T10:43:47.209Z,3180
2016-08-25T10:44:47.203Z,3835
2016-08-25T10:45:47.210Z,4035
2016-08-25T10:46:47.208Z,3840
2016-08-25T10:47:47.207Z,4255
2016-08-25T10:48:47.221Z,4395
2016-08-25T10:49:47.215Z,4125
2016-08-25T10:50:47.192Z,3955
2016-08-25T10:51:47.188Z,3855
2016-08-25T10:52:47.200Z,4205
2016-08-25T10:53:47.163Z,4490
2016-08-25T10:54:47.197Z,4115
2016-08-25T10:55:47.205Z,4225
2016-08-25T10:56:47.222Z,4225
2016-08-25T10:57:47.194Z,4735
2016-08-25T10:58:47.213Z,5300
2016-08-25T10:59:47.184Z,4830
2016-08-25T11:00:47.175Z,4585
2016-08-25T11:01:47.202Z,4260
2016-08-25T11:02:47.167Z,4100
2016-08-25T11:03:47.199Z,4325
2016-08-25T11:04:47.218Z,4775
2016-08-25T11:05:47.189Z,4465
2016-08-25T11:06:47.218Z,3825
2016-08-25T11:07:47.215Z,3470
2016-08-25T11:08:47.333Z,3260
2016-08-25T11:09:47.230Z,3945
2016-08-25T11:10:47.168Z,4360
2016-08-25T11:11:47.185Z,4225
2016-08-25T11:12:47.197Z,4075
2016-08-25T11:13:47.188Z,3745
2016-08-25T11:14:47.191Z,3680
2016-08-25T11:15:47.221Z,4045
2016-08-25T11:16:47.230Z,4025
2016-08-25T11:17:47.207Z,4145
2016-08-25T11:18:47.214Z,4195
2016-08-25T11:19:47.203Z,4205
2016-08-25T11:20:47.216Z,4445
2016-08-25T11:21:47.209Z,4110
2016-08-25T11:22:47.196Z,3675
2016-08-25T11:23:47.209Z,4235
2016-08-25T11:24:47.179Z,4580
2016-08-25T11:25:47.201Z,3865
2016-08-25T11:26:47.174Z,3375
2016-08-25T11:27:47.202Z,4020
2016-08-25T11:28:47.229Z,4555
2016-08-25T11:29:47.220Z,4475
2016-08-25T11:30:47.172Z,4275
2016-08-25T11:31:47.200Z,4010
2016-08-25T11:32:47.195Z,3800
2016-08-25T11:33:47.173Z,3895
2016-08-25T11:34:47.168Z,4280
2016-08-25T11:35:47.210Z,4685
2016-08-25T11:36:47.228Z,4615
2016-08-25T11:37:47.214Z,4300
2016-08-25T11:38:47.204Z,4470
2016-08-25T11:39:47.201Z,4625
2016-08-25T11:40:47.198Z,4055
2016-08-25T11:41:47.223Z,4440
2016-08-25T11:42:47.202Z,4575
2016-08-25T11:43:47.178Z,4780
2016-08-25T11:45:47.202Z,4210
2016-08-25T11:46:47.191Z,4135
2016-08-25T11:47:47.222Z,4710
2016-08-25T11:48:47.218Z,5995
2016-08-25T11:49:47.215Z,6210
2016-08-25T11:50:47.226Z,5010
2016-08-25T11:51:47.883Z,4010
2016-08-25T11:52:47.208Z,3625
2016-08-25T11:53:47.215Z,4115
2016-08-25T11:54:47.232Z,4370
2016-08-25T11:55:47.245Z,3820
2016-08-25T11:56:47.178Z,3760
2016-08-25T11:57:47.202Z,4365
2016-08-25T11:58:47.206Z,3375
2016-08-25T11:59:47.212Z,2950
2016-08-25T12:00:47.203Z,3390
2016-08-25T12:01:47.202Z,4015
2016-08-25T12:02:47.187Z,3680
2016-08-25T12:03:47.175Z,3255
2016-08-25T12:04:47.194Z,2965
2016-08-25T12:05:47.217Z,2865
2016-08-25T12:06:47.218Z,3065
2016-08-25T12:07:47.208Z,4285
2016-08-25T12:08:47.392Z,4555
2016-08-25T12:09:47.221Z,3765
2016-08-25T12:10:47.193Z,3355
2016-08-25T12:11:47.881Z,3295
2016-08-25T12:12:47.177Z,3520
2016-08-25T12:13:47.187Z,2945
2016-08-25T12:14:47.213Z,2980
2016-08-25T12:15:47.203Z,3720
2016-08-25T12:16:47.165Z,4110
2016-08-25T12:17:47.194Z,4630
2016-08-25T12:18:47.187Z,4015
2016-08-25T12:19:47.201Z,3205
2016-08-25T12:20:47.185Z,3505
2016-08-25T12:21:47.188Z,3420
2016-08-25T12:22:47.175Z,3440
2016-08-25T12:23:47.218Z,3925
2016-08-25T12:24:47.199Z,3825
2016-08-25T12:25:47.188Z,3060
2016-08-25T12:26:47.898Z,3155
2016-08-25T12:27:47.162Z,3400
2016-08-25T12:28:47.187Z,2745
2016-08-25T12:29:47.163Z,2700
2016-08-25T12:30:47.210Z,2930
2016-08-25T12:31:47.187Z,3325
2016-08-25T12:32:47.204Z,3960
2016-08-25T12:33:47.187Z,4080
2016-08-25T12:34:47.902Z,3215
2016-08-25T12:35:47.185Z,3315
2016-08-25T12:36:47.201Z,3575
2016-08-25T12:37:47.193Z,3835
2016-08-25T12:38:47.176Z,4040
2016-08-25T12:39:47.206Z,4195
2016-08-25T12:40:47.198Z,3925
2016-08-25T12:41:47.201Z,4040
2016-08-25T12:42:47.188Z,3990
2016-08-25T12:43:47.208Z,4740
2016-08-25T12:44:47.229Z,6215
2016-08-25T12:45:47.216Z,6650
2016-08-25T12:46:47.190Z,6105
2016-08-25T12:47:47.190Z,4635
2016-08-25T12:48:47.211Z,4145
2016-08-25T12:49:47.196Z,4255
2016-08-25T12:50:47.199Z,4120
2016-08-25T12:51:47.195Z,3495
2016-08-25T12:52:47.191Z,3395
2016-08-25T12:53:47.186Z,3920
2016-08-25T12:54:47.198Z,3935
2016-08-25T12:55:47.206Z,3735
2016-08-25T12:56:47.191Z,3405
2016-08-25T12:57:47.185Z,3255
2016-08-25T12:58:47.215Z,3450
2016-08-25T12:59:47.188Z,3500
2016-08-25T13:00:47.185Z,3720
2016-08-25T13:01:47.201Z,3755
2016-08-25T13:02:47.191Z,3650
2016-08-25T13:03:47.190Z,3730
2016-08-25T13:04:47.211Z,3705
2016-08-25T13:05:47.205Z,3675
2016-08-25T13:06:47.196Z,3705
2016-08-25T13:07:47.205Z,3850
2016-08-25T13:08:47.278Z,4355
2016-08-25T13:09:47.218Z,4735
2016-08-25T13:10:47.210Z,4465
2016-08-25T13:11:47.181Z,3975
2016-08-25T13:12:47.206Z,3910
2016-08-25T13:13:47.204Z,3975
2016-08-25T13:14:47.339Z,3785
2016-08-25T13:15:47.199Z,3700
2016-08-25T13:16:47.189Z,3665
2016-08-25T13:17:47.195Z,3620
2016-08-25T13:18:47.973Z,3565
2016-08-25T13:19:47.188Z,3545
2016-08-25T13:20:47.168Z,3575
2016-08-25T13:21:47.204Z,3600
2016-08-25T13:22:47.212Z,3520
2016-08-25T13:23:47.184Z,3315
2016-08-25T13:24:47.206Z,3515
2016-08-25T13:25:47.878Z,3405
2016-08-25T13:26:47.190Z,2990
2016-08-25T13:27:47.210Z,3255
2016-08-25T13:28:47.207Z,3610
2016-08-25T13:29:47.202Z,3555
2016-08-25T13:30:47.185Z,3330
2016-08-25T13:31:47.177Z,3295
2016-08-25T13:32:47.214Z,3435
2016-08-25T13:33:47.175Z,3530
2016-08-25T13:34:47.167Z,3365
2016-08-25T13:35:47.182Z,3245
2016-08-25T13:36:47.206Z,3190
2016-08-25T13:37:47.195Z,3390
2016-08-25T13:38:47.198Z,3395
2016-08-25T13:39:47.183Z,3150
2016-08-25T13:40:47.173Z,3170
2016-08-25T13:41:47.211Z,3335
2016-08-25T13:42:47.180Z,3460
2016-08-25T13:43:47.181Z,3630
2016-08-25T13:44:47.196Z,3765
2016-08-25T13:45:47.196Z,3665
2016-08-25T13:46:47.182Z,3625
2016-08-25T13:47:47.167Z,3445
2016-08-25T13:48:47.198Z,3425
2016-08-25T13:49:47.211Z,3595